sensor_id;sensor_type;location;lat;lon;timestamp;P1;durP1;ratioP1;P2;durP2;ratioP2
73670;SDS011;61968;48.178;11.566;2023-05-07T00:02:26;5.30;;;4.18;;
73670;SDS011;61968;48.178;11.566;2023-05-07T00:04:53;6.22;;;5.28;;
73670;SDS011;61968;48.178;11.566;2023-05-07T00:07:20;7.28;;;4.70;;
73670;SDS011;61968;48.178;11.566;2023-05-07T00:09:46;6.93;;;5.18;;
73670;SDS011;61968;48.178;11.566;2023-05-07T00:12:13;6.53;;;5.13;;
73670;SDS011;61968;48.178;11.566;2023-05-07T00:14:39;6.25;;;5.07;;
73670;SDS011;61968;48.178;11.566;2023-05-07T00:17:06;6.22;;;4.75;;
73670;SDS011;61968;48.178;11.566;2023-05-07T00:19:33;9.68;;;5.07;;
73670;SDS011;61968;48.178;11.566;2023-05-07T00:22:01;6.82;;;4.47;;
73670;SDS011;61968;48.178;11.566;2023-05-07T00:24:27;10.52;;;5.00;;
73670;SDS011;61968;48.178;11.566;2023-05-07T00:26:54;6.80;;;4.53;;
73670;SDS011;61968;48.178;11.566;2023-05-07T00:29:20;9.43;;;5.78;;
73670;SDS011;61968;48.178;11.566;2023-05-07T00:31:48;8.27;;;4.78;;
73670;SDS011;61968;48.178;11.566;2023-05-07T00:34:15;5.22;;;3.92;;
73670;SDS011;61968;48.178;11.566;2023-05-07T00:36:41;8.70;;;4.13;;
73670;SDS011;61968;48.178;11.566;2023-05-07T00:39:09;5.13;;;4.30;;
73670;SDS011;61968;48.178;11.566;2023-05-07T00:41:35;5.07;;;4.57;;
73670;SDS011;61968;48.178;11.566;2023-05-07T00:44:02;7.82;;;4.80;;
73670;SDS011;61968;48.178;11.566;2023-05-07T00:46:28;10.95;;;4.60;;
73670;SDS011;61968;48.178;11.566;2023-05-07T00:48:57;7.20;;;4.70;;
73670;SDS011;61968;48.178;11.566;2023-05-07T00:51:24;7.63;;;5.20;;
73670;SDS011;61968;48.178;11.566;2023-05-07T00:53:52;7.88;;;4.45;;
73670;SDS011;61968;48.178;11.566;2023-05-07T00:56:20;6.43;;;4.72;;
73670;SDS011;61968;48.178;11.566;2023-05-07T00:58:47;6.53;;;4.05;;
73670;SDS011;61968;48.178;11.566;2023-05-07T01:01:14;8.50;;;5.50;;
73670;SDS011;61968;48.178;11.566;2023-05-07T01:03:41;5.20;;;3.92;;
73670;SDS011;61968;48.178;11.566;2023-05-07T01:06:08;6.90;;;4.20;;
73670;SDS011;61968;48.178;11.566;2023-05-07T01:08:37;6.25;;;4.82;;
73670;SDS011;61968;48.178;11.566;2023-05-07T01:11:06;8.75;;;4.90;;
73670;SDS011;61968;48.178;11.566;2023-05-07T01:13:34;5.47;;;4.43;;
73670;SDS011;61968;48.178;11.566;2023-05-07T01:16:02;8.27;;;5.13;;
73670;SDS011;61968;48.178;11.566;2023-05-07T01:18:30;6.82;;;4.72;;
73670;SDS011;61968;48.178;11.566;2023-05-07T01:20:57;8.55;;;4.63;;
73670;SDS011;61968;48.178;11.566;2023-05-07T01:23:26;6.60;;;4.70;;
73670;SDS011;61968;48.178;11.566;2023-05-07T01:25:53;6.97;;;4.15;;
73670;SDS011;61968;48.178;11.566;2023-05-07T01:28:20;7.00;;;3.85;;
73670;SDS011;61968;48.178;11.566;2023-05-07T01:30:49;7.05;;;4.70;;
73670;SDS011;61968;48.178;11.566;2023-05-07T01:33:18;6.28;;;4.10;;
73670;SDS011;61968;48.178;11.566;2023-05-07T01:35:49;6.15;;;4.15;;
73670;SDS011;61968;48.178;11.566;2023-05-07T01:38:19;4.72;;;3.85;;
73670;SDS011;61968;48.178;11.566;2023-05-07T01:40:49;5.80;;;3.58;;
73670;SDS011;61968;48.178;11.566;2023-05-07T01:43:15;6.35;;;3.72;;
73670;SDS011;61968;48.178;11.566;2023-05-07T01:45:42;6.30;;;4.15;;
73670;SDS011;61968;48.178;11.566;2023-05-07T01:48:11;7.45;;;4.22;;
73670;SDS011;61968;48.178;11.566;2023-05-07T01:50:40;8.00;;;3.95;;
73670;SDS011;61968;48.178;11.566;2023-05-07T01:53:08;7.03;;;4.38;;
73670;SDS011;61968;48.178;11.566;2023-05-07T01:55:34;4.00;;;3.45;;
73670;SDS011;61968;48.178;11.566;2023-05-07T01:58:03;4.00;;;3.58;;
73670;SDS011;61968;48.178;11.566;2023-05-07T02:00:30;3.78;;;3.47;;
73670;SDS011;61968;48.178;11.566;2023-05-07T02:02:57;3.42;;;3.13;;
73670;SDS011;61968;48.178;11.566;2023-05-07T02:05:24;3.67;;;3.20;;
73670;SDS011;61968;48.178;11.566;2023-05-07T02:07:50;3.88;;;3.53;;
73670;SDS011;61968;48.178;11.566;2023-05-07T02:10:17;4.18;;;3.22;;
73670;SDS011;61968;48.178;11.566;2023-05-07T02:12:43;3.97;;;3.30;;
73670;SDS011;61968;48.178;11.566;2023-05-07T02:15:11;6.93;;;3.80;;
73670;SDS011;61968;48.178;11.566;2023-05-07T02:17:39;5.88;;;3.60;;
73670;SDS011;61968;48.178;11.566;2023-05-07T02:20:23;4.30;;;3.90;;
73670;SDS011;61968;48.178;11.566;2023-05-07T02:22:49;5.50;;;3.20;;
73670;SDS011;61968;48.178;11.566;2023-05-07T02:25:16;5.60;;;3.40;;
73670;SDS011;61968;48.178;11.566;2023-05-07T02:27:42;7.00;;;3.63;;
73670;SDS011;61968;48.178;11.566;2023-05-07T02:30:11;4.68;;;3.72;;
73670;SDS011;61968;48.178;11.566;2023-05-07T02:32:37;3.33;;;3.03;;
73670;SDS011;61968;48.178;11.566;2023-05-07T02:35:05;3.80;;;3.20;;
73670;SDS011;61968;48.178;11.566;2023-05-07T02:37:31;4.50;;;3.35;;
73670;SDS011;61968;48.178;11.566;2023-05-07T02:39:58;3.70;;;3.08;;
73670;SDS011;61968;48.178;11.566;2023-05-07T02:42:24;3.95;;;3.60;;
73670;SDS011;61968;48.178;11.566;2023-05-07T02:44:51;3.92;;;3.63;;
73670;SDS011;61968;48.178;11.566;2023-05-07T02:47:18;4.20;;;3.08;;
73670;SDS011;61968;48.178;11.566;2023-05-07T02:49:45;4.38;;;3.38;;
73670;SDS011;61968;48.178;11.566;2023-05-07T02:52:11;4.88;;;3.47;;
73670;SDS011;61968;48.178;11.566;2023-05-07T02:54:38;4.30;;;3.53;;
73670;SDS011;61968;48.178;11.566;2023-05-07T02:57:05;5.50;;;3.45;;
73670;SDS011;61968;48.178;11.566;2023-05-07T02:59:31;2.92;;;2.72;;
73670;SDS011;61968;48.178;11.566;2023-05-07T03:01:58;4.45;;;2.72;;
73670;SDS011;61968;48.178;11.566;2023-05-07T03:04:25;3.60;;;3.30;;
73670;SDS011;61968;48.178;11.566;2023-05-07T03:06:52;3.53;;;3.22;;
73670;SDS011;61968;48.178;11.566;2023-05-07T03:09:18;5.65;;;3.20;;
73670;SDS011;61968;48.178;11.566;2023-05-07T03:11:45;3.03;;;2.72;;
73670;SDS011;61968;48.178;11.566;2023-05-07T03:14:11;3.58;;;3.17;;
73670;SDS011;61968;48.178;11.566;2023-05-07T03:16:38;4.35;;;3.72;;
73670;SDS011;61968;48.178;11.566;2023-05-07T03:19:06;3.28;;;2.85;;
73670;SDS011;61968;48.178;11.566;2023-05-07T03:21:33;5.55;;;3.45;;
73670;SDS011;61968;48.178;11.566;2023-05-07T03:24:00;4.32;;;2.63;;
73670;SDS011;61968;48.178;11.566;2023-05-07T03:26:26;3.97;;;3.20;;
73670;SDS011;61968;48.178;11.566;2023-05-07T03:28:53;4.13;;;2.97;;
73670;SDS011;61968;48.178;11.566;2023-05-07T03:31:20;4.57;;;2.97;;
73670;SDS011;61968;48.178;11.566;2023-05-07T03:33:50;3.70;;;3.40;;
73670;SDS011;61968;48.178;11.566;2023-05-07T03:36:17;4.22;;;3.65;;
73670;SDS011;61968;48.178;11.566;2023-05-07T03:38:45;4.85;;;3.38;;
73670;SDS011;61968;48.178;11.566;2023-05-07T03:41:12;4.40;;;3.38;;
73670;SDS011;61968;48.178;11.566;2023-05-07T03:43:38;3.30;;;3.00;;
73670;SDS011;61968;48.178;11.566;2023-05-07T03:46:05;3.70;;;2.72;;
73670;SDS011;61968;48.178;11.566;2023-05-07T03:48:31;3.92;;;2.97;;
73670;SDS011;61968;48.178;11.566;2023-05-07T03:50:58;5.63;;;3.42;;
73670;SDS011;61968;48.178;11.566;2023-05-07T03:53:24;3.60;;;2.97;;
73670;SDS011;61968;48.178;11.566;2023-05-07T03:55:52;4.70;;;3.30;;
73670;SDS011;61968;48.178;11.566;2023-05-07T03:58:19;5.38;;;3.72;;
73670;SDS011;61968;48.178;11.566;2023-05-07T04:00:45;6.35;;;3.20;;
73670;SDS011;61968;48.178;11.566;2023-05-07T04:03:11;4.72;;;3.42;;
73670;SDS011;61968;48.178;11.566;2023-05-07T04:05:38;4.05;;;3.35;;
73670;SDS011;61968;48.178;11.566;2023-05-07T04:08:04;3.83;;;3.40;;
73670;SDS011;61968;48.178;11.566;2023-05-07T04:10:31;6.43;;;3.33;;
73670;SDS011;61968;48.178;11.566;2023-05-07T04:12:59;5.50;;;3.20;;
73670;SDS011;61968;48.178;11.566;2023-05-07T04:15:25;4.05;;;3.20;;
73670;SDS011;61968;48.178;11.566;2023-05-07T04:17:52;3.53;;;3.10;;
73670;SDS011;61968;48.178;11.566;2023-05-07T04:20:18;4.55;;;3.40;;
73670;SDS011;61968;48.178;11.566;2023-05-07T04:22:44;4.18;;;3.45;;
73670;SDS011;61968;48.178;11.566;2023-05-07T04:25:11;4.35;;;2.80;;
73670;SDS011;61968;48.178;11.566;2023-05-07T04:27:37;3.75;;;3.10;;
73670;SDS011;61968;48.178;11.566;2023-05-07T04:30:06;3.97;;;3.00;;
73670;SDS011;61968;48.178;11.566;2023-05-07T04:32:33;4.05;;;3.40;;
73670;SDS011;61968;48.178;11.566;2023-05-07T04:35:01;5.28;;;3.17;;
73670;SDS011;61968;48.178;11.566;2023-05-07T04:37:28;4.80;;;3.33;;
73670;SDS011;61968;48.178;11.566;2023-05-07T04:39:54;4.53;;;3.30;;
73670;SDS011;61968;48.178;11.566;2023-05-07T04:42:20;4.10;;;3.40;;
73670;SDS011;61968;48.178;11.566;2023-05-07T04:44:47;4.55;;;3.25;;
73670;SDS011;61968;48.178;11.566;2023-05-07T04:47:20;3.63;;;3.33;;
73670;SDS011;61968;48.178;11.566;2023-05-07T04:49:46;4.57;;;3.58;;
73670;SDS011;61968;48.178;11.566;2023-05-07T04:52:13;3.95;;;3.65;;
73670;SDS011;61968;48.178;11.566;2023-05-07T04:54:40;4.20;;;2.88;;
73670;SDS011;61968;48.178;11.566;2023-05-07T04:57:06;5.15;;;2.90;;
73670;SDS011;61968;48.178;11.566;2023-05-07T04:59:33;2.90;;;2.70;;
73670;SDS011;61968;48.178;11.566;2023-05-07T05:01:59;3.55;;;2.88;;
73670;SDS011;61968;48.178;11.566;2023-05-07T05:04:27;5.45;;;3.97;;
73670;SDS011;61968;48.178;11.566;2023-05-07T05:06:54;5.05;;;3.90;;
73670;SDS011;61968;48.178;11.566;2023-05-07T05:09:20;5.43;;;3.78;;
73670;SDS011;61968;48.178;11.566;2023-05-07T05:11:46;4.95;;;3.30;;
73670;SDS011;61968;48.178;11.566;2023-05-07T05:14:13;4.35;;;2.97;;
73670;SDS011;61968;48.178;11.566;2023-05-07T05:16:40;3.50;;;3.10;;
73670;SDS011;61968;48.178;11.566;2023-05-07T05:19:06;4.00;;;3.25;;
73670;SDS011;61968;48.178;11.566;2023-05-07T05:21:34;5.55;;;3.17;;
73670;SDS011;61968;48.178;11.566;2023-05-07T05:24:00;3.03;;;2.80;;
73670;SDS011;61968;48.178;11.566;2023-05-07T05:26:27;4.18;;;3.40;;
73670;SDS011;61968;48.178;11.566;2023-05-07T05:28:53;5.57;;;3.17;;
73670;SDS011;61968;48.178;11.566;2023-05-07T05:31:20;3.38;;;2.92;;
73670;SDS011;61968;48.178;11.566;2023-05-07T05:33:46;3.55;;;3.15;;
73670;SDS011;61968;48.178;11.566;2023-05-07T05:36:12;4.82;;;3.38;;
73670;SDS011;61968;48.178;11.566;2023-05-07T05:38:40;3.88;;;3.35;;
73670;SDS011;61968;48.178;11.566;2023-05-07T05:41:07;4.78;;;3.33;;
73670;SDS011;61968;48.178;11.566;2023-05-07T05:43:33;3.17;;;2.90;;
73670;SDS011;61968;48.178;11.566;2023-05-07T05:46:00;3.58;;;2.85;;
73670;SDS011;61968;48.178;11.566;2023-05-07T05:48:27;3.25;;;2.75;;
73670;SDS011;61968;48.178;11.566;2023-05-07T05:50:54;2.60;;;2.10;;
73670;SDS011;61968;48.178;11.566;2023-05-07T05:53:21;22.38;;;9.63;;
73670;SDS011;61968;48.178;11.566;2023-05-07T05:55:49;6.60;;;4.28;;
73670;SDS011;61968;48.178;11.566;2023-05-07T05:58:16;3.92;;;3.33;;
73670;SDS011;61968;48.178;11.566;2023-05-07T06:00:43;5.78;;;2.58;;
73670;SDS011;61968;48.178;11.566;2023-05-07T06:03:10;5.25;;;2.75;;
73670;SDS011;61968;48.178;11.566;2023-05-07T06:05:37;2.67;;;2.33;;
73670;SDS011;61968;48.178;11.566;2023-05-07T06:08:03;14.73;;;7.40;;
73670;SDS011;61968;48.178;11.566;2023-05-07T06:10:29;11.57;;;5.38;;
73670;SDS011;61968;48.178;11.566;2023-05-07T06:12:57;49.92;;;28.88;;
73670;SDS011;61968;48.178;11.566;2023-05-07T06:15:24;32.25;;;22.63;;
73670;SDS011;61968;48.178;11.566;2023-05-07T06:17:50;12.75;;;7.40;;
73670;SDS011;61968;48.178;11.566;2023-05-07T06:20:17;10.95;;;7.50;;
73670;SDS011;61968;48.178;11.566;2023-05-07T06:22:43;8.20;;;5.80;;
73670;SDS011;61968;48.178;11.566;2023-05-07T06:25:10;5.15;;;3.95;;
73670;SDS011;61968;48.178;11.566;2023-05-07T06:27:36;3.97;;;3.50;;
73670;SDS011;61968;48.178;11.566;2023-05-07T06:30:06;4.88;;;3.40;;
73670;SDS011;61968;48.178;11.566;2023-05-07T06:32:34;5.25;;;2.75;;
73670;SDS011;61968;48.178;11.566;2023-05-07T06:35:00;3.78;;;2.90;;
73670;SDS011;61968;48.178;11.566;2023-05-07T06:37:27;2.60;;;2.40;;
73670;SDS011;61968;48.178;11.566;2023-05-07T06:39:53;3.80;;;2.30;;
73670;SDS011;61968;48.178;11.566;2023-05-07T06:42:20;2.67;;;2.33;;
73670;SDS011;61968;48.178;11.566;2023-05-07T06:44:46;3.47;;;2.42;;
73670;SDS011;61968;48.178;11.566;2023-05-07T06:47:14;2.72;;;2.35;;
73670;SDS011;61968;48.178;11.566;2023-05-07T06:49:40;3.42;;;2.38;;
73670;SDS011;61968;48.178;11.566;2023-05-07T06:52:07;2.70;;;2.47;;
73670;SDS011;61968;48.178;11.566;2023-05-07T06:54:33;10.50;;;3.10;;
73670;SDS011;61968;48.178;11.566;2023-05-07T06:57:00;3.13;;;2.80;;
73670;SDS011;61968;48.178;11.566;2023-05-07T06:59:26;3.17;;;2.17;;
73670;SDS011;61968;48.178;11.566;2023-05-07T07:01:53;3.20;;;2.15;;
73670;SDS011;61968;48.178;11.566;2023-05-07T07:04:21;6.78;;;2.97;;
73670;SDS011;61968;48.178;11.566;2023-05-07T07:06:49;6.50;;;2.55;;
73670;SDS011;61968;48.178;11.566;2023-05-07T07:09:15;2.90;;;2.33;;
73670;SDS011;61968;48.178;11.566;2023-05-07T07:11:42;2.42;;;2.33;;
73670;SDS011;61968;48.178;11.566;2023-05-07T07:14:08;2.97;;;2.15;;
73670;SDS011;61968;48.178;11.566;2023-05-07T07:16:35;2.58;;;2.38;;
73670;SDS011;61968;48.178;11.566;2023-05-07T07:19:01;3.22;;;2.08;;
73670;SDS011;61968;48.178;11.566;2023-05-07T07:21:29;2.13;;;1.90;;
73670;SDS011;61968;48.178;11.566;2023-05-07T07:23:57;5.57;;;1.83;;
73670;SDS011;61968;48.178;11.566;2023-05-07T07:26:23;6.05;;;2.28;;
73670;SDS011;61968;48.178;11.566;2023-05-07T07:28:49;12.40;;;2.28;;
73670;SDS011;61968;48.178;11.566;2023-05-07T07:31:16;6.85;;;2.45;;
73670;SDS011;61968;48.178;11.566;2023-05-07T07:33:42;4.25;;;1.80;;
73670;SDS011;61968;48.178;11.566;2023-05-07T07:36:09;3.67;;;2.08;;
73670;SDS011;61968;48.178;11.566;2023-05-07T07:38:37;10.20;;;3.17;;
73670;SDS011;61968;48.178;11.566;2023-05-07T07:41:03;3.17;;;2.55;;
73670;SDS011;61968;48.178;11.566;2023-05-07T07:43:30;3.67;;;2.00;;
73670;SDS011;61968;48.178;11.566;2023-05-07T07:45:56;5.53;;;2.45;;
73670;SDS011;61968;48.178;11.566;2023-05-07T07:48:23;2.30;;;2.10;;
73670;SDS011;61968;48.178;11.566;2023-05-07T07:50:49;2.10;;;1.83;;
73670;SDS011;61968;48.178;11.566;2023-05-07T07:53:16;2.15;;;1.80;;
73670;SDS011;61968;48.178;11.566;2023-05-07T07:55:44;2.40;;;2.00;;
73670;SDS011;61968;48.178;11.566;2023-05-07T07:58:11;3.83;;;2.30;;
73670;SDS011;61968;48.178;11.566;2023-05-07T08:00:37;3.20;;;2.30;;
73670;SDS011;61968;48.178;11.566;2023-05-07T08:03:04;6.20;;;1.73;;
73670;SDS011;61968;48.178;11.566;2023-05-07T08:05:32;5.38;;;2.50;;
73670;SDS011;61968;48.178;11.566;2023-05-07T08:07:58;4.13;;;3.38;;
73670;SDS011;61968;48.178;11.566;2023-05-07T08:10:25;7.57;;;4.95;;
73670;SDS011;61968;48.178;11.566;2023-05-07T08:12:53;11.02;;;6.95;;
73670;SDS011;61968;48.178;11.566;2023-05-07T08:15:19;32.78;;;16.80;;
73670;SDS011;61968;48.178;11.566;2023-05-07T08:17:45;76.82;;;39.90;;
73670;SDS011;61968;48.178;11.566;2023-05-07T08:20:13;98.97;;;50.10;;
73670;SDS011;61968;48.178;11.566;2023-05-07T08:22:40;55.92;;;27.45;;
73670;SDS011;61968;48.178;11.566;2023-05-07T08:25:06;54.55;;;28.70;;
73670;SDS011;61968;48.178;11.566;2023-05-07T08:27:33;33.30;;;17.48;;
73670;SDS011;61968;48.178;11.566;2023-05-07T08:30:02;25.70;;;12.68;;
73670;SDS011;61968;48.178;11.566;2023-05-07T08:32:28;18.98;;;10.95;;
73670;SDS011;61968;48.178;11.566;2023-05-07T08:34:55;23.27;;;11.73;;
73670;SDS011;61968;48.178;11.566;2023-05-07T08:37:22;19.52;;;10.68;;
73670;SDS011;61968;48.178;11.566;2023-05-07T08:39:48;17.63;;;8.82;;
73670;SDS011;61968;48.178;11.566;2023-05-07T08:42:15;15.43;;;6.30;;
73670;SDS011;61968;48.178;11.566;2023-05-07T08:44:42;9.95;;;6.38;;
73670;SDS011;61968;48.178;11.566;2023-05-07T08:47:13;6.93;;;5.15;;
73670;SDS011;61968;48.178;11.566;2023-05-07T08:49:39;8.75;;;7.68;;
73670;SDS011;61968;48.178;11.566;2023-05-07T08:52:06;6.30;;;5.57;;
73670;SDS011;61968;48.178;11.566;2023-05-07T08:54:33;12.45;;;8.25;;
73670;SDS011;61968;48.178;11.566;2023-05-07T08:57:00;15.55;;;8.38;;
73670;SDS011;61968;48.178;11.566;2023-05-07T08:59:27;14.40;;;9.18;;
73670;SDS011;61968;48.178;11.566;2023-05-07T09:01:55;12.88;;;7.78;;
73670;SDS011;61968;48.178;11.566;2023-05-07T09:04:23;8.90;;;5.68;;
73670;SDS011;61968;48.178;11.566;2023-05-07T09:06:49;7.95;;;4.88;;
73670;SDS011;61968;48.178;11.566;2023-05-07T09:09:16;9.00;;;4.43;;
73670;SDS011;61968;48.178;11.566;2023-05-07T09:11:44;5.55;;;3.85;;
73670;SDS011;61968;48.178;11.566;2023-05-07T09:14:11;5.43;;;4.20;;
73670;SDS011;61968;48.178;11.566;2023-05-07T09:16:37;6.15;;;3.25;;
73670;SDS011;61968;48.178;11.566;2023-05-07T09:19:04;3.55;;;2.88;;
73670;SDS011;61968;48.178;11.566;2023-05-07T09:21:32;8.32;;;3.53;;
73670;SDS011;61968;48.178;11.566;2023-05-07T09:23:58;3.33;;;2.28;;
73670;SDS011;61968;48.178;11.566;2023-05-07T09:26:25;3.05;;;2.13;;
73670;SDS011;61968;48.178;11.566;2023-05-07T09:28:53;3.13;;;2.80;;
73670;SDS011;61968;48.178;11.566;2023-05-07T09:31:19;6.40;;;2.35;;
73670;SDS011;61968;48.178;11.566;2023-05-07T09:33:48;8.50;;;2.00;;
73670;SDS011;61968;48.178;11.566;2023-05-07T09:36:14;2.15;;;2.05;;
73670;SDS011;61968;48.178;11.566;2023-05-07T09:38:43;5.00;;;2.05;;
73670;SDS011;61968;48.178;11.566;2023-05-07T09:41:11;2.00;;;1.80;;
73670;SDS011;61968;48.178;11.566;2023-05-07T09:43:39;2.50;;;2.30;;
73670;SDS011;61968;48.178;11.566;2023-05-07T09:46:07;2.40;;;2.10;;
73670;SDS011;61968;48.178;11.566;2023-05-07T09:48:38;2.95;;;2.67;;
73670;SDS011;61968;48.178;11.566;2023-05-07T09:51:10;1.80;;;1.70;;
73670;SDS011;61968;48.178;11.566;2023-05-07T09:53:44;3.28;;;1.73;;
73670;SDS011;61968;48.178;11.566;2023-05-07T09:56:12;2.22;;;1.75;;
73670;SDS011;61968;48.178;11.566;2023-05-07T09:58:40;1.65;;;1.48;;
73670;SDS011;61968;48.178;11.566;2023-05-07T10:01:10;3.13;;;1.73;;
73670;SDS011;61968;48.178;11.566;2023-05-07T10:03:38;3.22;;;2.10;;
73670;SDS011;61968;48.178;11.566;2023-05-07T10:06:06;1.65;;;1.48;;
73670;SDS011;61968;48.178;11.566;2023-05-07T10:08:34;3.30;;;2.08;;
73670;SDS011;61968;48.178;11.566;2023-05-07T10:11:03;1.73;;;1.63;;
73670;SDS011;61968;48.178;11.566;2023-05-07T10:13:30;1.35;;;1.27;;
73670;SDS011;61968;48.178;11.566;2023-05-07T10:15:57;2.80;;;2.30;;
73670;SDS011;61968;48.178;11.566;2023-05-07T10:18:24;3.47;;;1.90;;
73670;SDS011;61968;48.178;11.566;2023-05-07T10:20:54;1.80;;;1.70;;
73670;SDS011;61968;48.178;11.566;2023-05-07T10:23:24;1.58;;;1.33;;
73670;SDS011;61968;48.178;11.566;2023-05-07T10:25:52;2.03;;;1.48;;
73670;SDS011;61968;48.178;11.566;2023-05-07T10:28:22;1.10;;;1.08;;
73670;SDS011;61968;48.178;11.566;2023-05-07T10:30:55;2.58;;;1.42;;
73670;SDS011;61968;48.178;11.566;2023-05-07T10:33:32;1.10;;;1.05;;
73670;SDS011;61968;48.178;11.566;2023-05-07T10:36:01;1.38;;;1.27;;
73670;SDS011;61968;48.178;11.566;2023-05-07T10:38:29;0.90;;;0.77;;
73670;SDS011;61968;48.178;11.566;2023-05-07T10:40:56;2.10;;;1.73;;
73670;SDS011;61968;48.178;11.566;2023-05-07T10:43:24;1.67;;;1.58;;
73670;SDS011;61968;48.178;11.566;2023-05-07T10:46:09;1.08;;;1.08;;
73670;SDS011;61968;48.178;11.566;2023-05-07T10:48:49;1.00;;;1.00;;
73670;SDS011;61968;48.178;11.566;2023-05-07T10:51:32;1.35;;;1.20;;
73670;SDS011;61968;48.178;11.566;2023-05-07T10:54:18;1.08;;;1.00;;
73670;SDS011;61968;48.178;11.566;2023-05-07T10:56:49;1.23;;;1.23;;
73670;SDS011;61968;48.178;11.566;2023-05-07T10:59:34;4.60;;;1.92;;
73670;SDS011;61968;48.178;11.566;2023-05-07T11:02:06;2.25;;;1.52;;
73670;SDS011;61968;48.178;11.566;2023-05-07T11:04:34;2.30;;;1.42;;
73670;SDS011;61968;48.178;11.566;2023-05-07T11:07:16;1.75;;;1.13;;
73670;SDS011;61968;48.178;11.566;2023-05-07T11:09:59;2.65;;;1.30;;
73670;SDS011;61968;48.178;11.566;2023-05-07T11:18:04;1.52;;;1.00;;
73670;SDS011;61968;48.178;11.566;2023-05-07T11:20:44;1.40;;;1.30;;
73670;SDS011;61968;48.178;11.566;2023-05-07T11:26:23;1.65;;;1.42;;
73670;SDS011;61968;48.178;11.566;2023-05-07T11:28:51;1.25;;;1.13;;
73670;SDS011;61968;48.178;11.566;2023-05-07T11:31:21;2.25;;;1.55;;
73670;SDS011;61968;48.178;11.566;2023-05-07T11:33:51;1.45;;;1.35;;
73670;SDS011;61968;48.178;11.566;2023-05-07T11:36:18;2.85;;;1.73;;
73670;SDS011;61968;48.178;11.566;2023-05-07T11:38:46;1.95;;;1.55;;
73670;SDS011;61968;48.178;11.566;2023-05-07T11:41:12;2.13;;;1.92;;
73670;SDS011;61968;48.178;11.566;2023-05-07T11:43:52;2.80;;;1.63;;
73670;SDS011;61968;48.178;11.566;2023-05-07T11:46:22;10.13;;;5.88;;
73670;SDS011;61968;48.178;11.566;2023-05-07T11:48:48;3.72;;;2.65;;
73670;SDS011;61968;48.178;11.566;2023-05-07T11:51:18;3.17;;;2.10;;
73670;SDS011;61968;48.178;11.566;2023-05-07T11:53:46;3.53;;;3.22;;
73670;SDS011;61968;48.178;11.566;2023-05-07T11:56:12;1.83;;;1.73;;
73670;SDS011;61968;48.178;11.566;2023-05-07T11:58:40;2.33;;;1.90;;
73670;SDS011;61968;48.178;11.566;2023-05-07T12:01:07;3.05;;;2.47;;
73670;SDS011;61968;48.178;11.566;2023-05-07T12:03:36;2.22;;;1.60;;
73670;SDS011;61968;48.178;11.566;2023-05-07T12:06:05;4.30;;;2.70;;
73670;SDS011;61968;48.178;11.566;2023-05-07T12:08:32;2.78;;;1.98;;
73670;SDS011;61968;48.178;11.566;2023-05-07T12:10:58;3.72;;;1.67;;
73670;SDS011;61968;48.178;11.566;2023-05-07T12:13:25;1.85;;;1.70;;
73670;SDS011;61968;48.178;11.566;2023-05-07T12:15:52;2.17;;;1.63;;
73670;SDS011;61968;48.178;11.566;2023-05-07T12:18:19;2.90;;;2.63;;
73670;SDS011;61968;48.178;11.566;2023-05-07T12:20:47;11.00;;;5.20;;
73670;SDS011;61968;48.178;11.566;2023-05-07T12:23:15;4.78;;;2.90;;
73670;SDS011;61968;48.178;11.566;2023-05-07T12:25:42;3.60;;;2.25;;
73670;SDS011;61968;48.178;11.566;2023-05-07T12:28:12;3.15;;;2.00;;
73670;SDS011;61968;48.178;11.566;2023-05-07T12:30:40;3.70;;;1.80;;
73670;SDS011;61968;48.178;11.566;2023-05-07T12:33:08;1.95;;;1.85;;
73670;SDS011;61968;48.178;11.566;2023-05-07T12:35:36;2.35;;;1.30;;
73670;SDS011;61968;48.178;11.566;2023-05-07T12:38:07;2.85;;;2.05;;
73670;SDS011;61968;48.178;11.566;2023-05-07T12:40:37;2.47;;;1.65;;
73670;SDS011;61968;48.178;11.566;2023-05-07T12:43:05;1.23;;;1.13;;
73670;SDS011;61968;48.178;11.566;2023-05-07T12:45:31;5.97;;;2.60;;
73670;SDS011;61968;48.178;11.566;2023-05-07T12:48:03;2.50;;;2.22;;
73670;SDS011;61968;48.178;11.566;2023-05-07T12:50:30;1.70;;;1.60;;
73670;SDS011;61968;48.178;11.566;2023-05-07T12:52:57;1.55;;;1.45;;
73670;SDS011;61968;48.178;11.566;2023-05-07T12:55:26;2.42;;;1.58;;
73670;SDS011;61968;48.178;11.566;2023-05-07T12:57:52;3.15;;;1.65;;
73670;SDS011;61968;48.178;11.566;2023-05-07T13:00:31;1.63;;;1.20;;
73670;SDS011;61968;48.178;11.566;2023-05-07T13:02:59;1.58;;;1.48;;
73670;SDS011;61968;48.178;11.566;2023-05-07T13:05:25;1.20;;;1.10;;
73670;SDS011;61968;48.178;11.566;2023-05-07T13:07:52;3.90;;;1.33;;
73670;SDS011;61968;48.178;11.566;2023-05-07T13:10:19;1.30;;;1.17;;
73670;SDS011;61968;48.178;11.566;2023-05-07T13:12:47;1.30;;;1.20;;
73670;SDS011;61968;48.178;11.566;2023-05-07T13:15:13;1.58;;;1.15;;
73670;SDS011;61968;48.178;11.566;2023-05-07T13:17:40;3.78;;;1.60;;
73670;SDS011;61968;48.178;11.566;2023-05-07T13:20:08;2.00;;;1.35;;
73670;SDS011;61968;48.178;11.566;2023-05-07T13:22:36;1.92;;;1.30;;
73670;SDS011;61968;48.178;11.566;2023-05-07T13:25:03;3.05;;;1.50;;
73670;SDS011;61968;48.178;11.566;2023-05-07T13:27:30;1.55;;;1.33;;
73670;SDS011;61968;48.178;11.566;2023-05-07T13:29:58;1.25;;;1.25;;
73670;SDS011;61968;48.178;11.566;2023-05-07T13:32:24;0.98;;;0.95;;
73670;SDS011;61968;48.178;11.566;2023-05-07T13:34:51;2.42;;;1.40;;
73670;SDS011;61968;48.178;11.566;2023-05-07T13:37:17;1.30;;;1.30;;
73670;SDS011;61968;48.178;11.566;2023-05-07T13:39:44;3.65;;;1.30;;
73670;SDS011;61968;48.178;11.566;2023-05-07T13:42:10;1.50;;;1.40;;
73670;SDS011;61968;48.178;11.566;2023-05-07T13:44:37;2.40;;;1.45;;
73670;SDS011;61968;48.178;11.566;2023-05-07T13:47:05;1.70;;;1.25;;
73670;SDS011;61968;48.178;11.566;2023-05-07T13:49:32;2.72;;;1.67;;
73670;SDS011;61968;48.178;11.566;2023-05-07T13:51:58;3.05;;;1.90;;
73670;SDS011;61968;48.178;11.566;2023-05-07T13:54:25;2.67;;;1.60;;
73670;SDS011;61968;48.178;11.566;2023-05-07T13:56:51;2.10;;;1.90;;
73670;SDS011;61968;48.178;11.566;2023-05-07T13:59:18;2.15;;;1.60;;
73670;SDS011;61968;48.178;11.566;2023-05-07T14:01:44;2.88;;;1.77;;
73670;SDS011;61968;48.178;11.566;2023-05-07T14:04:12;1.67;;;1.35;;
73670;SDS011;61968;48.178;11.566;2023-05-07T14:06:39;6.15;;;3.55;;
73670;SDS011;61968;48.178;11.566;2023-05-07T14:09:05;1.80;;;1.70;;
73670;SDS011;61968;48.178;11.566;2023-05-07T14:11:32;1.88;;;1.70;;
73670;SDS011;61968;48.178;11.566;2023-05-07T14:13:58;3.13;;;1.40;;
73670;SDS011;61968;48.178;11.566;2023-05-07T14:16:25;3.28;;;1.75;;
73670;SDS011;61968;48.178;11.566;2023-05-07T14:18:51;2.63;;;1.92;;
73670;SDS011;61968;48.178;11.566;2023-05-07T14:21:19;1.90;;;1.77;;
73670;SDS011;61968;48.178;11.566;2023-05-07T14:23:45;3.78;;;1.67;;
73670;SDS011;61968;48.178;11.566;2023-05-07T14:26:12;1.63;;;1.52;;
73670;SDS011;61968;48.178;11.566;2023-05-07T14:28:38;2.58;;;2.00;;
73670;SDS011;61968;48.178;11.566;2023-05-07T14:31:06;2.90;;;1.80;;
73670;SDS011;61968;48.178;11.566;2023-05-07T14:33:33;2.45;;;1.85;;
73670;SDS011;61968;48.178;11.566;2023-05-07T14:35:59;2.72;;;1.95;;
73670;SDS011;61968;48.178;11.566;2023-05-07T14:38:27;2.03;;;1.88;;
73670;SDS011;61968;48.178;11.566;2023-05-07T14:40:53;4.20;;;1.92;;
73670;SDS011;61968;48.178;11.566;2023-05-07T14:43:21;2.70;;;2.08;;
73670;SDS011;61968;48.178;11.566;2023-05-07T14:45:47;2.70;;;1.88;;